M/V Grande Caribe — WCX4495 — position and weather

sailwx.info

Track history (hours):
 
Tides and Currents Weather Stations Pressure Air Temp Water Temp Dewpoint Dewpoint Depression Visibility Wind Speed Wind Dir Waves Ship Positions

M/V Grande Caribe

More information available from US FCC via Universal Licensing System and Coast Guard Vessel Documentation Center.

Last reported at 2014-Jul-22 10:33 UTC. Time now 2014-Jul-22 11:21 UTC.
Position N 41°19' W 071°17'.

Length 55 m; draft 2.1 m.

Type: Passenger vessel. MMSI: 369023000.

Date/timePositionNaut miles runAvg speedWind from/ knotsBaromVisibWave heightAir tempDewpointWater temp
2014-Jul-22 10:33N 41°19' W 071°17'1010.4
2014-Jul-22 09:33N 41°24' W 071°05'10 9.8
2014-Jul-22 08:33N 41°29' W 070°54'8 7.6
2014-Jul-22 07:32N 41°37' W 070°54'  
2014-Jul-18 18:33N 41°42' W 071°18'1 0.2
2014-Jul-18 13:29N 41°43' W 071°17'0 0.0
2014-Jul-18 12:33N 41°43' W 071°17'0 0.0
2014-Jul-18 11:33N 41°43' W 071°17'0 0.0
2014-Jul-18 10:33N 41°43' W 071°17'0 0.0
2014-Jul-18 09:33N 41°43' W 071°17'0 0.0
2014-Jul-18 08:33N 41°43' W 071°17'0 0.0
2014-Jul-18 07:33N 41°43' W 071°17'0 0.0
2014-Jul-18 06:33N 41°43' W 071°17'0 0.0
2014-Jul-18 05:33N 41°43' W 071°17'0 0.0
2014-Jul-18 04:33N 41°43' W 071°17'0 0.0
2014-Jul-18 03:33N 41°43' W 071°17'0 0.0
2014-Jul-18 02:33N 41°43' W 071°17'0 0.0
2014-Jul-18 01:33N 41°43' W 071°17'0 0.0
2014-Jul-18 00:27N 41°43' W 071°17'0 0.0
2014-Jul-17 23:13N 41°43' W 071°17'0 0.0
2014-Jul-17 22:30N 41°43' W 071°17'0 0.0
2014-Jul-17 20:16N 41°43' W 071°17'0 0.0
2014-Jul-17 19:23N 41°43' W 071°17'0 0.0
2014-Jul-17 18:26N 41°43' W 071°17'0 0.0
2014-Jul-17 17:15N 41°43' W 071°17'0 0.0
2014-Jul-17 16:27N 41°43' W 071°17'0 0.0
2014-Jul-17 15:33N 41°43' W 071°17'0 0.0
2014-Jul-17 14:33N 41°43' W 071°17'0 0.0
2014-Jul-17 13:33N 41°43' W 071°17'0 0.0
2014-Jul-17 12:32N 41°43' W 071°17'0 0.0
2014-Jul-17 11:33N 41°43' W 071°17'0 0.0
2014-Jul-17 10:33N 41°43' W 071°17'0 0.0
2014-Jul-17 09:33N 41°43' W 071°17'0 0.0
2014-Jul-17 08:33N 41°43' W 071°17'0 0.0
2014-Jul-17 07:33N 41°43' W 071°17'0 0.0
2014-Jul-17 06:33N 41°43' W 071°17'0 0.0
2014-Jul-17 05:33N 41°43' W 071°17'0 0.0
2014-Jul-17 04:33N 41°43' W 071°17'0 0.0
2014-Jul-17 03:33N 41°43' W 071°17'0 0.0
2014-Jul-17 02:33N 41°43' W 071°17'0 0.0
2014-Jul-17 01:33N 41°43' W 071°17'0 0.0
2014-Jul-17 00:25N 41°43' W 071°17'0 0.0
2014-Jul-16 22:27N 41°43' W 071°17'0 0.0
2014-Jul-16 20:24N 41°43' W 071°17'0 0.0
2014-Jul-16 19:27N 41°43' W 071°17'0 0.0
2014-Jul-16 18:33N 41°43' W 071°17'0 0.0
2014-Jul-16 17:33N 41°43' W 071°17'0 0.0
2014-Jul-16 16:33N 41°43' W 071°17'0 0.0
2014-Jul-16 15:33N 41°43' W 071°17'0 0.0
2014-Jul-16 14:33N 41°43' W 071°17'0 0.0
2014-Jul-16 13:33N 41°43' W 071°17'0 0.0
2014-Jul-16 12:33N 41°43' W 071°17'0 0.0
2014-Jul-16 11:30N 41°43' W 071°17'0 0.0
2014-Jul-16 08:30N 41°43' W 071°17'0 0.0
2014-Jul-16 07:33N 41°43' W 071°17'0 0.0
2014-Jul-16 06:22N 41°43' W 071°17'0 0.0
2014-Jul-16 05:33N 41°43' W 071°17'0 0.0
2014-Jul-16 04:33N 41°43' W 071°17'0 0.0
2014-Jul-16 03:33N 41°43' W 071°17'0 0.0
2014-Jul-16 02:33N 41°43' W 071°17'0 0.0
2014-Jul-16 01:33N 41°43' W 071°17'0 0.0
2014-Jul-16 00:32N 41°43' W 071°17'0 0.0
2014-Jul-15 23:32N 41°43' W 071°17'0 0.0
2014-Jul-15 22:22N 41°43' W 071°17'0 0.0
2014-Jul-15 21:33N 41°43' W 071°17'0 0.0
2014-Jul-15 20:33N 41°43' W 071°17'0 0.0
2014-Jul-15 19:27N 41°43' W 071°17'0 0.0
2014-Jul-15 18:31N 41°43' W 071°17'0 0.0
2014-Jul-15 17:33N 41°43' W 071°17'0 0.0
2014-Jul-15 16:33N 41°43' W 071°17'0 0.0
2014-Jul-15 15:33N 41°43' W 071°17'0 0.0
2014-Jul-15 14:33N 41°43' W 071°17'0 0.0
2014-Jul-15 13:33N 41°43' W 071°17'0 0.0
2014-Jul-15 12:33N 41°43' W 071°17'0 0.1
2014-Jul-15 11:33N 41°43' W 071°17'9 9.0
2014-Jul-15 10:31N 41°34' W 071°19'6 0.2
2014-Jul-14 11:05N 41°29' W 071°20'5 7.3
2014-Jul-14 10:25N 41°24' W 071°23'910.2
2014-Jul-14 09:33N 41°18' W 071°31'1211.6
2014-Jul-14 08:33N 41°16' W 071°46'1212.4
2014-Jul-14 07:34N 41°14' W 072°02'1313.4
2014-Jul-14 06:33N 41°11' W 072°20'1211.7
2014-Jul-14 05:33N 41°08' W 072°35'1110.8
2014-Jul-14 04:33N 41°06' W 072°49'1010.2
2014-Jul-14 03:33N 41°04' W 073°02'10 9.9
2014-Jul-14 02:33N 41°01' W 073°15'10 9.6
2014-Jul-14 01:33N 40°59' W 073°27'1010.3
2014-Jul-14 00:33N 40°55' W 073°39'1310.4
2014-Jul-13 23:16N 40°48' W 073°54'710.4
2014-Jul-13 22:33N 40°43' W 074°02'2 0.2
2014-Jul-13 13:11N 40°45' W 074°01'0 0.0
2014-Jul-13 12:31N 40°45' W 074°01'1 0.6
2014-Jul-13 11:34N 40°44' W 074°01'6 6.0
2014-Jul-13 10:33N 40°38' W 074°03'7 7.3
2014-Jul-13 09:33N 40°31' W 074°00'7 7.3
2014-Jul-13 08:33N 40°25' W 073°55'8 7.3
2014-Jul-13 07:31N 40°18' W 073°55'8 8.6
2014-Jul-13 06:33N 40°10' W 073°57'8 8.1
2014-Jul-13 05:33N 40°02' W 073°59'8 8.3
2014-Jul-13 04:33N 39°54' W 074°01'8 8.3
2014-Jul-13 03:33N 39°45' W 074°03'9 9.4
2014-Jul-13 02:34N 39°37' W 074°07'9 8.9
2014-Jul-13 01:34N 39°29' W 074°13'8 8.2
2014-Jul-13 00:33N 39°22' W 074°18'12 9.5
2014-Jul-12 23:18N 39°14' W 074°30'7 9.6
2014-Jul-12 22:33N 39°07' W 074°34'28 9.2
2014-Jul-12 19:33N 38°48' W 074°59'60 8.5
2014-Jul-12 12:33N 39°31' W 075°53'  
Track history (hours):
 
Tides and Currents Weather Stations Pressure Air Temp Water Temp Dewpoint Dewpoint Depression Visibility Wind Speed Wind Dir Waves Ship Positions

M/V Grande Caribe

More information available from US FCC via Universal Licensing System and Coast Guard Vessel Documentation Center.

Last reported at 2014-Jul-22 10:33 UTC. Time now 2014-Jul-22 11:21 UTC.
Position N 41°19' W 071°17'.

Length 55 m; draft 2.1 m.

Type: Passenger vessel. MMSI: 369023000.

Date/timePositionNaut miles runAvg speedWind from/ knotsBaromVisibWave heightAir tempDewpointWater temp
2014-Jul-22 10:33N 41°19' W 071°17'1010.4
2014-Jul-22 09:33N 41°24' W 071°05'10 9.8
2014-Jul-22 08:33N 41°29' W 070°54'8 7.6
2014-Jul-22 07:32N 41°37' W 070°54'  
2014-Jul-18 18:33N 41°42' W 071°18'1 0.2
2014-Jul-18 13:29N 41°43' W 071°17'0 0.0
2014-Jul-18 12:33N 41°43' W 071°17'0 0.0
2014-Jul-18 11:33N 41°43' W 071°17'0 0.0
2014-Jul-18 10:33N 41°43' W 071°17'0 0.0
2014-Jul-18 09:33N 41°43' W 071°17'0 0.0
2014-Jul-18 08:33N 41°43' W 071°17'0 0.0
2014-Jul-18 07:33N 41°43' W 071°17'0 0.0
2014-Jul-18 06:33N 41°43' W 071°17'0 0.0
2014-Jul-18 05:33N 41°43' W 071°17'0 0.0
2014-Jul-18 04:33N 41°43' W 071°17'0 0.0
2014-Jul-18 03:33N 41°43' W 071°17'0 0.0
2014-Jul-18 02:33N 41°43' W 071°17'0 0.0
2014-Jul-18 01:33N 41°43' W 071°17'0 0.0
2014-Jul-18 00:27N 41°43' W 071°17'0 0.0
2014-Jul-17 23:13N 41°43' W 071°17'0 0.0
2014-Jul-17 22:30N 41°43' W 071°17'0 0.0
2014-Jul-17 20:16N 41°43' W 071°17'0 0.0
2014-Jul-17 19:23N 41°43' W 071°17'0 0.0
2014-Jul-17 18:26N 41°43' W 071°17'0 0.0
2014-Jul-17 17:15N 41°43' W 071°17'0 0.0
2014-Jul-17 16:27N 41°43' W 071°17'0 0.0
2014-Jul-17 15:33N 41°43' W 071°17'0 0.0
2014-Jul-17 14:33N 41°43' W 071°17'0 0.0
2014-Jul-17 13:33N 41°43' W 071°17'0 0.0
2014-Jul-17 12:32N 41°43' W 071°17'0 0.0
2014-Jul-17 11:33N 41°43' W 071°17'0 0.0
2014-Jul-17 10:33N 41°43' W 071°17'0 0.0
2014-Jul-17 09:33N 41°43' W 071°17'0 0.0
2014-Jul-17 08:33N 41°43' W 071°17'0 0.0
2014-Jul-17 07:33N 41°43' W 071°17'0 0.0
2014-Jul-17 06:33N 41°43' W 071°17'0 0.0
2014-Jul-17 05:33N 41°43' W 071°17'0 0.0
2014-Jul-17 04:33N 41°43' W 071°17'0 0.0
2014-Jul-17 03:33N 41°43' W 071°17'0 0.0
2014-Jul-17 02:33N 41°43' W 071°17'0 0.0
2014-Jul-17 01:33N 41°43' W 071°17'0 0.0
2014-Jul-17 00:25N 41°43' W 071°17'0 0.0
2014-Jul-16 22:27N 41°43' W 071°17'0 0.0
2014-Jul-16 20:24N 41°43' W 071°17'0 0.0
2014-Jul-16 19:27N 41°43' W 071°17'0 0.0
2014-Jul-16 18:33N 41°43' W 071°17'0 0.0
2014-Jul-16 17:33N 41°43' W 071°17'0 0.0
2014-Jul-16 16:33N 41°43' W 071°17'0 0.0
2014-Jul-16 15:33N 41°43' W 071°17'0 0.0
2014-Jul-16 14:33N 41°43' W 071°17'0 0.0
2014-Jul-16 13:33N 41°43' W 071°17'0 0.0
2014-Jul-16 12:33N 41°43' W 071°17'0 0.0
2014-Jul-16 11:30N 41°43' W 071°17'0 0.0
2014-Jul-16 08:30N 41°43' W 071°17'0 0.0
2014-Jul-16 07:33N 41°43' W 071°17'0 0.0
2014-Jul-16 06:22N 41°43' W 071°17'0 0.0
2014-Jul-16 05:33N 41°43' W 071°17'0 0.0
2014-Jul-16 04:33N 41°43' W 071°17'0 0.0
2014-Jul-16 03:33N 41°43' W 071°17'0 0.0
2014-Jul-16 02:33N 41°43' W 071°17'0 0.0
2014-Jul-16 01:33N 41°43' W 071°17'0 0.0
2014-Jul-16 00:32N 41°43' W 071°17'0 0.0
2014-Jul-15 23:32N 41°43' W 071°17'0 0.0
2014-Jul-15 22:22N 41°43' W 071°17'0 0.0
2014-Jul-15 21:33N 41°43' W 071°17'0 0.0
2014-Jul-15 20:33N 41°43' W 071°17'0 0.0
2014-Jul-15 19:27N 41°43' W 071°17'0 0.0
2014-Jul-15 18:31N 41°43' W 071°17'0 0.0
2014-Jul-15 17:33N 41°43' W 071°17'0 0.0
2014-Jul-15 16:33N 41°43' W 071°17'0 0.0
2014-Jul-15 15:33N 41°43' W 071°17'0 0.0
2014-Jul-15 14:33N 41°43' W 071°17'0 0.0
2014-Jul-15 13:33N 41°43' W 071°17'0 0.0
2014-Jul-15 12:33N 41°43' W 071°17'0 0.1
2014-Jul-15 11:33N 41°43' W 071°17'9 9.0
2014-Jul-15 10:31N 41°34' W 071°19'6 0.2
2014-Jul-14 11:05N 41°29' W 071°20'5 7.3
2014-Jul-14 10:25N 41°24' W 071°23'910.2
2014-Jul-14 09:33N 41°18' W 071°31'1211.6
2014-Jul-14 08:33N 41°16' W 071°46'1212.4
2014-Jul-14 07:34N 41°14' W 072°02'1313.4
2014-Jul-14 06:33N 41°11' W 072°20'1211.7
2014-Jul-14 05:33N 41°08' W 072°35'1110.8
2014-Jul-14 04:33N 41°06' W 072°49'1010.2
2014-Jul-14 03:33N 41°04' W 073°02'10 9.9
2014-Jul-14 02:33N 41°01' W 073°15'10 9.6
2014-Jul-14 01:33N 40°59' W 073°27'1010.3
2014-Jul-14 00:33N 40°55' W 073°39'1310.4
2014-Jul-13 23:16N 40°48' W 073°54'710.4
2014-Jul-13 22:33N 40°43' W 074°02'2 0.2
2014-Jul-13 13:11N 40°45' W 074°01'0 0.0
2014-Jul-13 12:31N 40°45' W 074°01'1 0.6
2014-Jul-13 11:34N 40°44' W 074°01'6 6.0
2014-Jul-13 10:33N 40°38' W 074°03'7 7.3
2014-Jul-13 09:33N 40°31' W 074°00'7 7.3
2014-Jul-13 08:33N 40°25' W 073°55'8 7.3
2014-Jul-13 07:31N 40°18' W 073°55'8 8.6
2014-Jul-13 06:33N 40°10' W 073°57'8 8.1
2014-Jul-13 05:33N 40°02' W 073°59'8 8.3
2014-Jul-13 04:33N 39°54' W 074°01'8 8.3
2014-Jul-13 03:33N 39°45' W 074°03'9 9.4
2014-Jul-13 02:34N 39°37' W 074°07'9 8.9
2014-Jul-13 01:34N 39°29' W 074°13'8 8.2
2014-Jul-13 00:33N 39°22' W 074°18'12 9.5
2014-Jul-12 23:18N 39°14' W 074°30'7 9.6
2014-Jul-12 22:33N 39°07' W 074°34'28 9.2
2014-Jul-12 19:33N 38°48' W 074°59'60 8.5
2014-Jul-12 12:33N 39°31' W 075°53'  

Dump ship's entire track history